Time;durP1;ratioP1;P1;durP2;ratioP2;P2;SDS_P1;SDS_P2;PMS_P1;PMS_P2;Temp;Humidity;BMP_temperature;BMP_pressure;BME280_temperature;BME280_humidity;BME280_pressure;Samples;Min_cycle;Max_cycle;Signal;HPM_P1;HPM_P2
2023/01/19 02:23:50;;;;;;;25.00;13.70;;;;;;;3.60;100.00;98927.89;104657;1303;545168;-67
2023/01/19 02:26:19;;;;;;;23.70;12.80;;;;;;;3.76;100.00;98936.99;106688;1286;22707;-67
2023/01/19 02:29:08;;;;;;;27.60;11.10;;;;;;;3.94;100.00;98933.42;106846;1286;22616;-67
2023/01/19 02:31:36;;;;;;;22.80;10.20;;;;;;;4.11;100.00;98938.30;106519;1287;23338;-67
2023/01/19 02:34:03;;;;;;;20.90;9.10;;;;;;;4.24;100.00;98943.38;106491;1288;24410;-68
2023/01/19 02:36:34;;;;;;;19.70;8.50;;;;;;;4.36;100.00;98943.91;105705;1266;1173398;-67
2023/01/19 02:39:01;;;;;;;18.90;7.00;;;;;;;4.50;100.00;98918.69;106748;1285;22560;-67
2023/01/19 02:41:29;;;;;;;14.10;7.20;;;;;;;4.58;100.00;98901.48;107016;1282;22696;-67
2023/01/19 02:43:56;;;;;;;17.60;6.80;;;;;;;4.68;100.00;98907.02;106983;1282;23356;-67
2023/01/19 02:46:24;;;;;;;15.20;7.00;;;;;;;4.80;100.00;98916.43;106880;1282;24212;-67
2023/01/19 02:48:51;;;;;;;14.50;6.90;;;;;;;4.88;100.00;98926.10;108951;1281;22459;-68
2023/01/19 02:51:22;;;;;;;16.40;8.20;;;;;;;4.93;100.00;98932.84;109857;1282;22861;-68
2023/01/19 02:54:05;;;;;;;16.60;8.30;;;;;;;4.99;100.00;98926.80;109764;1282;22410;-68
2023/01/19 02:56:36;;;;;;;18.60;9.20;;;;;;;5.04;100.00;98923.63;109858;1282;23339;-68
2023/01/19 02:59:12;;;;;;;19.40;9.60;;;;;;;5.06;100.00;98905.95;109861;1281;23053;-68
2023/01/19 03:01:59;;;;;;;18.00;9.00;;;;;;;5.08;100.00;98906.28;109905;1281;22980;-68
2023/01/19 03:04:41;;;;;;;17.10;9.30;;;;;;;5.05;100.00;98933.50;109854;1281;23103;-67
2023/01/19 03:07:13;;;;;;;18.30;10.50;;;;;;;4.97;100.00;98945.95;109849;1267;22360;-68
2023/01/19 03:09:47;;;;;;;18.70;10.60;;;;;;;4.94;100.00;98951.73;109758;1282;22298;-67
2023/01/19 03:12:17;;;;;;;17.30;9.80;;;;;;;4.94;100.00;98944.73;109782;1282;22287;-67
2023/01/19 03:14:45;;;;;;;19.30;9.30;;;;;;;4.96;100.00;98949.45;109864;1281;22239;-67
2023/01/19 03:17:12;;;;;;;19.20;9.40;;;;;;;4.99;100.00;98953.64;109744;1281;23048;-68
2023/01/19 03:19:40;;;;;;;17.40;9.30;;;;;;;4.99;100.00;98949.64;109873;1281;22993;-68
2023/01/19 03:22:16;;;;;;;20.50;9.30;;;;;;;4.99;100.00;98954.61;109856;1281;23115;-67
2023/01/19 03:24:44;;;;;;;15.70;9.20;;;;;;;4.98;100.00;98961.55;109947;1278;22227;-68
2023/01/19 03:27:13;;;;;;;17.00;9.50;;;;;;;5.00;100.00;98977.26;109969;1278;22418;-68
2023/01/19 03:29:41;;;;;;;15.40;9.10;;;;;;;4.98;100.00;98976.29;110024;1278;22295;-67
2023/01/19 03:32:12;;;;;;;15.20;8.70;;;;;;;4.99;100.00;98975.80;110034;1278;22281;-68
2023/01/19 03:34:39;;;;;;;15.10;9.00;;;;;;;5.02;100.00;98974.91;109928;1279;22232;-68
2023/01/19 03:37:06;;;;;;;19.60;9.10;;;;;;;5.03;100.00;98966.94;107675;1279;25235;-67
2023/01/19 03:39:33;;;;;;;18.20;9.80;;;;;;;4.98;100.00;98967.11;107019;1278;25376;-67
2023/01/19 03:42:05;;;;;;;18.70;9.10;;;;;;;4.93;100.00;98966.52;107299;1279;22791;-67
2023/01/19 03:44:34;;;;;;;20.10;9.30;;;;;;;4.92;100.00;98963.80;107110;1279;25475;-69
2023/01/19 03:47:03;;;;;;;15.60;8.90;;;;;;;4.93;100.00;98959.83;107398;1278;22519;-68
2023/01/19 03:49:30;;;;;;;16.50;9.10;;;;;;;4.93;100.00;98953.23;107439;1278;22584;-67
2023/01/19 03:51:57;;;;;;;16.40;9.10;;;;;;;4.92;100.00;98943.52;107187;1279;23883;-67
2023/01/19 03:54:25;;;;;;;17.90;9.90;;;;;;;4.89;100.00;98943.16;107246;1278;22565;-67
2023/01/19 03:56:52;;;;;;;17.10;9.10;;;;;;;4.85;100.00;98936.22;107237;1278;22537;-67
2023/01/19 03:59:20;;;;;;;17.00;8.00;;;;;;;4.85;100.00;98937.58;107271;1278;25350;-66
2023/01/19 04:01:47;;;;;;;13.20;7.90;;;;;;;4.84;100.00;98943.92;107323;1278;22570;-68
2023/01/19 04:04:14;;;;;;;20.90;9.00;;;;;;;4.83;100.00;98950.22;107547;1278;22516;-67
2023/01/19 04:06:42;;;;;;;18.50;8.30;;;;;;;4.83;100.00;98949.52;107455;1278;23339;-67
2023/01/19 04:09:09;;;;;;;14.70;8.50;;;;;;;4.81;100.00;98957.75;107520;1278;22810;-67
2023/01/19 04:11:37;;;;;;;16.80;8.60;;;;;;;4.79;100.00;98965.71;107360;1278;24263;-66
2023/01/19 04:14:04;;;;;;;16.80;9.50;;;;;;;4.75;100.00;98969.48;107338;1278;22619;-67
2023/01/19 04:16:31;;;;;;;19.40;9.30;;;;;;;4.69;100.00;98976.11;107285;1278;25328;-66
2023/01/19 04:18:58;;;;;;;21.00;10.50;;;;;;;4.68;100.00;98978.25;107276;1278;26711;-66
2023/01/19 04:21:25;;;;;;;18.80;10.20;;;;;;;4.66;100.00;98976.94;107252;1279;24299;-67
2023/01/19 04:23:52;;;;;;;20.20;11.20;;;;;;;4.61;100.00;98971.74;107272;1278;25258;-66
2023/01/19 04:26:19;;;;;;;20.30;10.50;;;;;;;4.61;100.00;98979.23;107326;1278;22516;-67
2023/01/19 04:28:46;;;;;;;22.70;12.30;;;;;;;4.59;100.00;98979.44;107175;1279;22552;-67
2023/01/19 04:31:13;;;;;;;23.50;12.30;;;;;;;4.50;100.00;98979.61;107281;1279;22526;-67
2023/01/19 04:33:40;;;;;;;22.30;11.90;;;;;;;4.41;100.00;98983.42;107390;1278;22524;-67
2023/01/19 04:36:09;;;;;;;19.40;11.30;;;;;;;4.39;100.00;98996.07;107439;1278;22771;-67
2023/01/19 04:38:36;;;;;;;23.30;11.40;;;;;;;4.38;100.00;99001.81;107394;1279;25450;-67
2023/01/19 04:41:03;;;;;;;20.30;10.60;;;;;;;4.37;100.00;99012.35;107412;1257;23281;-66
2023/01/19 04:43:30;;;;;;;19.10;10.00;;;;;;;4.37;100.00;99008.80;107452;1278;25233;-67
2023/01/19 04:45:57;;;;;;;21.70;10.50;;;;;;;4.38;100.00;99012.59;107358;1278;24212;-67
2023/01/19 04:48:24;;;;;;;18.90;10.70;;;;;;;4.41;100.00;99019.42;107397;1278;22522;-66
2023/01/19 04:50:51;;;;;;;22.70;10.60;;;;;;;4.41;100.00;99019.47;107433;1279;22694;-66
2023/01/19 04:53:18;;;;;;;17.60;10.40;;;;;;;4.36;100.00;99024.69;109937;1279;22232;-67
2023/01/19 04:55:45;;;;;;;22.00;10.50;;;;;;;4.33;100.00;99019.10;110126;1279;22243;-67
2023/01/19 04:58:12;;;;;;;20.90;10.10;;;;;;;4.33;100.00;99008.44;110003;1278;22296;-67
2023/01/19 05:00:39;;;;;;;17.50;9.40;;;;;;;4.37;100.00;99014.96;110133;1279;22947;-67
2023/01/19 05:03:06;;;;;;;18.30;8.30;;;;;;;4.41;100.00;99026.16;110058;1278;22216;-67
2023/01/19 05:05:33;;;;;;;17.90;8.50;;;;;;;4.46;100.00;99028.06;110131;1278;22308;-67
2023/01/19 05:08:00;;;;;;;16.20;8.50;;;;;;;4.53;100.00;99026.15;110005;1279;23003;-67
2023/01/19 05:10:27;;;;;;;15.50;9.50;;;;;;;4.55;100.00;99027.80;110090;1279;22199;-67
2023/01/19 05:12:54;;;;;;;17.60;8.90;;;;;;;4.54;100.00;99023.31;110005;1279;22304;-67
2023/01/19 05:15:21;;;;;;;16.50;8.60;;;;;;;4.62;100.00;99013.98;110012;1279;22407;-68
2023/01/19 05:17:48;;;;;;;14.40;7.70;;;;;;;4.71;100.00;99005.56;109950;1278;22439;-68
2023/01/19 05:20:16;;;;;;;15.20;7.80;;;;;;;4.79;100.00;99014.09;110025;1278;22176;-67
2023/01/19 05:22:50;;;;;;;14.00;8.40;;;;;;;4.81;100.00;99041.45;110052;1272;23738;-67
2023/01/19 05:25:17;;;;;;;14.20;8.20;;;;;;;4.82;100.00;99054.84;110094;1279;22251;-67
2023/01/19 05:27:44;;;;;;;16.40;9.00;;;;;;;4.81;100.00;99066.20;110016;1279;22424;-67
2023/01/19 05:30:12;;;;;;;15.80;9.40;;;;;;;4.81;100.00;99077.48;110016;1278;22353;-67
2023/01/19 05:32:39;;;;;;;18.60;9.30;;;;;;;4.86;100.00;99085.73;110062;1278;22343;-67
2023/01/19 05:35:06;;;;;;;17.80;9.90;;;;;;;4.87;100.00;99071.41;110097;1278;22269;-67
2023/01/19 05:37:33;;;;;;;17.60;9.20;;;;;;;4.90;100.00;99054.02;110096;1278;22286;-67
2023/01/19 05:40:00;;;;;;;13.50;8.10;;;;;;;4.99;100.00;99038.74;110162;1278;22939;-67
2023/01/19 05:42:27;;;;;;;13.30;7.60;;;;;;;5.06;100.00;99026.58;110089;1278;22927;-67
2023/01/19 05:44:55;;;;;;;13.60;8.00;;;;;;;5.11;100.00;99015.58;110091;1278;22402;-68
2023/01/19 05:47:22;;;;;;;13.70;7.60;;;;;;;5.14;100.00;98990.63;110081;1278;22406;-67
2023/01/19 05:49:49;;;;;;;13.20;7.90;;;;;;;5.07;100.00;98973.94;110091;1278;22306;-68
2023/01/19 05:52:15;;;;;;;16.50;8.20;;;;;;;4.96;100.00;98954.29;110066;1279;23036;-67
2023/01/19 05:54:45;;;;;;;17.10;7.60;;;;;;;4.94;100.00;98947.91;110094;1278;23303;-67
2023/01/19 05:57:11;;;;;;;11.70;7.10;;;;;;;4.98;100.00;98952.77;109968;1278;22437;-68
2023/01/19 05:59:39;;;;;;;13.20;7.50;;;;;;;4.98;100.00;98956.86;110056;1278;22387;-67
2023/01/19 06:02:05;;;;;;;15.90;8.20;;;;;;;4.96;100.00;98961.73;110122;1278;22290;-67
2023/01/19 06:04:33;;;;;;;14.30;7.80;;;;;;;4.89;100.00;98934.86;110144;1278;22698;-67
2023/01/19 06:07:01;;;;;;;13.00;7.30;;;;;;;4.87;100.00;98911.86;110059;1278;22222;-68
2023/01/19 06:09:28;;;;;;;14.70;8.30;;;;;;;4.86;100.00;98902.40;110096;1278;22421;-67
2023/01/19 06:11:56;;;;;;;16.30;9.60;;;;;;;4.79;100.00;98883.90;110161;1278;22297;-66
2023/01/19 06:14:23;;;;;;;15.90;9.50;;;;;;;4.68;100.00;98859.73;110106;1278;22828;-67
2023/01/19 06:16:51;;;;;;;15.40;8.40;;;;;;;4.61;100.00;98856.71;110146;1278;22399;-67
2023/01/19 06:19:18;;;;;;;12.80;8.20;;;;;;;4.59;100.00;98861.06;110085;1273;22220;-67
2023/01/19 06:21:48;;;;;;;12.30;8.10;;;;;;;4.57;100.00;98862.49;110150;1278;22240;-67
2023/01/19 06:24:15;;;;;;;14.80;9.00;;;;;;;4.55;100.00;98867.91;110031;1279;22194;-67
2023/01/19 06:26:42;;;;;;;14.50;8.80;;;;;;;4.53;100.00;98875.23;109988;1279;22720;-67
2023/01/19 06:29:10;;;;;;;14.30;9.30;;;;;;;4.48;100.00;98870.80;110102;1278;22227;-66
2023/01/19 06:31:37;;;;;;;17.50;10.00;;;;;;;4.49;100.00;98870.44;110018;1279;22225;-66
2023/01/19 06:34:04;;;;;;;13.40;9.70;;;;;;;4.48;100.00;98873.23;110001;1278;22440;-67
2023/01/19 06:36:32;;;;;;;15.10;10.00;;;;;;;4.44;100.00;98882.45;110083;1278;23106;-66
2023/01/19 06:39:02;;;;;;;14.50;9.20;;;;;;;4.37;100.00;98878.00;110004;1278;22302;-67
2023/01/19 06:41:29;;;;;;;16.60;9.30;;;;;;;4.35;100.00;98873.20;110054;1278;22281;-67
2023/01/19 06:43:56;;;;;;;12.90;8.60;;;;;;;4.37;100.00;98860.66;110127;1278;22492;-66
2023/01/19 06:46:23;;;;;;;12.90;8.50;;;;;;;4.37;100.00;98844.59;108071;1271;22546;-66
2023/01/19 06:48:49;;;;;;;13.40;8.70;;;;;;;4.35;100.00;98837.95;107742;1278;22525;-66
2023/01/19 06:51:16;;;;;;;13.60;9.00;;;;;;;4.30;100.00;98831.05;107737;1278;22674;-66
2023/01/19 06:53:44;;;;;;;14.40;9.40;;;;;;;4.30;100.00;98822.65;107288;1278;24380;-66
2023/01/19 06:56:10;;;;;;;14.60;9.70;;;;;;;4.35;100.00;98829.80;107261;1278;22529;-67
2023/01/19 06:58:38;;;;;;;15.00;10.00;;;;;;;4.40;100.00;98827.48;107370;1278;24275;-67
2023/01/19 07:01:05;;;;;;;13.20;9.30;;;;;;;4.47;100.00;98826.54;107459;1278;22903;-67
2023/01/19 07:03:33;;;;;;;15.50;9.90;;;;;;;4.53;100.00;98828.38;107794;1278;22512;-67
2023/01/19 07:06:05;;;;;;;14.00;9.50;;;;;;;4.62;100.00;98822.86;107776;1276;23519;-68
2023/01/19 07:08:33;;;;;;;13.10;9.70;;;;;;;4.74;100.00;98814.13;107497;1279;22543;-68
2023/01/19 07:11:01;;;;;;;19.30;9.10;;;;;;;4.83;100.00;98811.83;107445;1278;22565;-68
2023/01/19 07:13:52;;;;;;;18.10;9.50;;;;;;;4.95;100.00;98811.88;107359;1279;22621;-68
2023/01/19 07:16:19;;;;;;;16.70;9.30;;;;;;;5.10;100.00;98811.51;107403;1270;25271;-68
2023/01/19 07:18:47;;;;;;;14.60;9.70;;;;;;;5.25;100.00;98816.10;107350;1279;22529;-69
2023/01/19 07:21:14;;;;;;;16.30;10.50;;;;;;;5.40;100.00;98815.98;107367;1279;25353;-69
2023/01/19 07:23:42;;;;;;;17.20;10.30;;;;;;;5.56;100.00;98818.52;107462;1279;22547;-68
2023/01/19 07:26:09;;;;;;;19.00;11.40;;;;;;;5.72;100.00;98817.58;107395;1278;25347;-68
2023/01/19 07:28:36;;;;;;;21.10;12.30;;;;;;;5.84;100.00;98819.42;107394;1274;23578;-69
2023/01/19 07:31:03;;;;;;;24.00;14.10;;;;;;;5.97;100.00;98827.11;107432;1278;26599;-68
2023/01/19 07:33:30;;;;;;;20.90;13.80;;;;;;;6.07;100.00;98828.89;107397;1279;22592;-69
2023/01/19 07:35:57;;;;;;;26.00;14.30;;;;;;;6.14;100.00;98833.84;107379;1278;22546;-69
2023/01/19 07:38:24;;;;;;;21.50;15.00;;;;;;;6.17;100.00;98837.35;107284;1279;22643;-69
2023/01/19 07:40:51;;;;;;;20.20;14.60;;;;;;;6.07;100.00;98838.46;107319;1279;22569;-69
2023/01/19 07:43:18;;;;;;;24.10;13.20;;;;;;;5.90;100.00;98830.92;107473;1278;22526;-68
2023/01/19 07:45:45;;;;;;;27.00;9.90;;;;;;;5.76;100.00;98825.80;107571;1278;22515;-69
2023/01/19 07:48:12;;;;;;;29.40;7.70;;;;;;;5.59;100.00;98830.90;107637;1278;23468;-69
2023/01/19 07:50:39;;;;;;;23.10;6.50;;;;;;;5.41;100.00;98824.61;107521;1279;24250;-69
2023/01/19 07:53:07;;;;;;;39.50;7.00;;;;;;;5.23;100.00;98835.04;107476;1279;25239;-69
2023/01/19 07:55:34;;;;;;;36.40;7.10;;;;;;;5.08;100.00;98843.92;107585;1279;25321;-69
2023/01/19 07:58:05;;;;;;;19.50;6.30;;;;;;;4.99;100.00;98840.98;107463;1278;23810;-69
2023/01/19 08:00:34;;;;;;;29.20;6.80;;;;;;;4.89;100.00;98847.42;107768;1278;24189;-69
2023/01/19 08:03:01;;;;;;;22.50;6.40;;;;;;;4.82;100.00;98846.28;110023;1278;22227;-69
2023/01/19 08:05:29;;;;;;;35.10;7.10;;;;;;;4.84;100.00;98846.42;110134;1278;22456;-69
2023/01/19 08:07:58;;;;;;;21.80;6.90;;;;;;;4.83;100.00;98841.91;110125;1278;22313;-69
2023/01/19 08:10:25;;;;;;;18.80;5.10;;;;;;;4.84;100.00;98848.52;110070;1278;22193;-69
2023/01/19 08:12:53;;;;;;;21.40;5.80;;;;;;;4.82;100.00;98854.31;109994;1279;22428;-69
2023/01/19 08:15:22;;;;;;;20.00;5.50;;;;;;;4.75;100.00;98850.48;110037;1279;22203;-69
2023/01/19 08:17:56;;;;;;;25.70;4.90;;;;;;;4.73;100.00;98843.83;110135;1278;22432;-69
2023/01/19 08:20:24;;;;;;;14.70;5.20;;;;;;;4.74;100.00;98850.52;110117;1254;23465;-69
2023/01/19 08:22:58;;;;;;;48.90;6.40;;;;;;;4.72;100.00;98852.45;110059;1279;23021;-67
2023/01/19 08:25:31;;;;;;;21.20;5.90;;;;;;;4.69;100.00;98853.27;110023;1279;22212;-67
2023/01/19 08:27:59;;;;;;;12.30;5.20;;;;;;;4.73;100.00;98862.10;110080;1279;22216;-67
2023/01/19 08:30:26;;;;;;;19.50;5.00;;;;;;;4.77;100.00;98858.27;110126;1278;22380;-67
2023/01/19 08:32:56;;;;;;;18.70;5.40;;;;;;;4.82;100.00;98872.66;110109;1278;22204;-68
2023/01/19 08:35:24;;;;;;;19.30;5.20;;;;;;;4.83;100.00;98879.46;110129;1278;22225;-67
2023/01/19 08:37:51;;;;;;;17.50;5.10;;;;;;;4.78;100.00;98883.73;110162;1278;22207;-67
2023/01/19 08:40:18;;;;;;;10.20;5.20;;;;;;;4.77;100.00;98901.15;110102;1278;22327;-67
2023/01/19 08:42:45;;;;;;;15.50;6.00;;;;;;;4.78;100.00;98900.12;110142;1278;22496;-67
2023/01/19 08:45:12;;;;;;;14.80;5.90;;;;;;;4.78;100.00;98899.09;110131;1278;22296;-67
2023/01/19 08:47:39;;;;;;;10.40;6.70;;;;;;;4.78;100.00;98888.85;110156;1278;22351;-68
2023/01/19 08:50:07;;;;;;;17.70;7.60;;;;;;;4.81;100.00;98883.80;110019;1279;22197;-67
2023/01/19 08:52:34;;;;;;;26.60;8.40;;;;;;;4.84;100.00;98885.13;110022;1279;22230;-67
2023/01/19 08:55:01;;;;;;;23.90;8.10;;;;;;;4.86;100.00;98885.46;110165;1279;22855;-67
2023/01/19 08:57:28;;;;;;;11.20;8.50;;;;;;;4.82;100.00;98887.86;107859;1279;22918;-67
2023/01/19 08:59:55;;;;;;;18.10;8.60;;;;;;;4.83;100.00;98885.94;107141;1279;22549;-66
2023/01/19 09:02:22;;;;;;;14.20;8.30;;;;;;;4.86;100.00;98883.42;107156;1276;22568;-67
2023/01/19 09:04:50;;;;;;;10.50;7.50;;;;;;;4.89;100.00;98886.48;107202;1278;22649;-67
2023/01/19 09:07:17;;;;;;;12.30;7.20;;;;;;;4.91;100.00;98884.35;107281;1279;25356;-67
2023/01/19 09:09:44;;;;;;;10.80;7.20;;;;;;;4.92;100.00;98878.58;107244;1279;22525;-68
2023/01/19 09:12:11;;;;;;;9.00;6.70;;;;;;;4.90;100.00;98874.67;107213;1278;22526;-68
2023/01/19 09:14:38;;;;;;;8.60;5.70;;;;;;;4.92;100.00;98871.23;107248;1278;25515;-68
2023/01/19 09:17:05;;;;;;;7.30;5.00;;;;;;;4.93;100.00;98862.71;107215;1278;22562;-68
2023/01/19 09:19:32;;;;;;;7.70;5.20;;;;;;;4.93;100.00;98864.29;107252;1278;24212;-68
2023/01/19 09:22:01;;;;;;;8.00;5.30;;;;;;;4.95;100.00;98861.57;110060;1279;22234;-67
2023/01/19 09:24:28;;;;;;;6.90;5.10;;;;;;;4.96;100.00;98856.88;110109;1279;22408;-67
2023/01/19 09:26:55;;;;;;;7.90;4.90;;;;;;;4.95;100.00;98853.70;110289;1277;22207;-67
2023/01/19 09:29:21;;;;;;;8.70;5.30;;;;;;;5.01;100.00;98851.63;110276;1277;23016;-68
2023/01/19 09:31:48;;;;;;;7.60;4.90;;;;;;;5.08;100.00;98854.64;110284;1277;22429;-68
2023/01/19 09:34:16;;;;;;;7.60;4.10;;;;;;;5.15;100.00;98847.11;110259;1277;22198;-67
2023/01/19 09:36:43;;;;;;;7.20;4.50;;;;;;;5.22;100.00;98847.92;110316;1277;22217;-68
2023/01/19 09:39:10;;;;;;;6.80;4.50;;;;;;;5.25;100.00;98837.42;110244;1277;22215;-68
2023/01/19 09:41:37;;;;;;;8.70;4.90;;;;;;;5.27;100.00;98834.20;110263;1277;22162;-67
2023/01/19 09:44:04;;;;;;;7.90;4.80;;;;;;;5.32;100.00;98828.30;107567;1276;24374;-69
2023/01/19 09:46:41;;;;;;;8.40;4.90;;;;;;;5.40;100.00;98821.82;107283;1270;22621;-69
2023/01/19 09:49:16;;;;;;;5.60;4.10;;;;;;;5.46;100.00;98814.68;107341;1277;23258;-68
2023/01/19 09:51:44;;;;;;;5.80;4.10;;;;;;;5.53;100.00;98816.55;107285;1277;25356;-69
2023/01/19 09:54:38;;;;;;;8.10;4.40;;;;;;;5.58;100.00;98813.23;108003;1277;25327;-69
2023/01/19 09:57:10;;;;;;;8.20;4.90;;;;;;;5.60;100.00;98810.64;107790;1278;25217;-68
2023/01/19 09:59:37;;;;;;;6.90;4.80;;;;;;;5.65;100.00;98810.57;107344;1278;24235;-69
2023/01/19 14:26:41;;;;;;;45.00;19.70;;;;;;;7.17;100.00;98758.12;104494;1304;544855;-70
2023/01/19 14:29:15;;;;;;;37.60;15.30;;;;;;;7.32;100.00;98763.89;106763;1288;24258;-70
2023/01/19 14:31:44;;;;;;;37.40;12.30;;;;;;;7.50;100.00;98770.29;109317;1288;22255;-71
2023/01/19 14:34:32;;;;;;;28.60;10.00;;;;;;;7.65;100.00;98772.14;109357;1289;22412;-71
2023/01/19 14:37:01;;;;;;;25.00;9.90;;;;;;;7.77;100.00;98761.10;109472;1289;22286;-71
2023/01/19 14:39:33;;;;;;;33.10;8.30;;;;;;;7.86;100.00;98759.55;109113;1287;267982;-71
2023/01/19 14:42:02;;;;;;;23.40;8.50;;;;;;;7.94;100.00;98758.91;106922;1286;25220;-71
2023/01/19 14:44:32;;;;;;;32.20;8.30;;;;;;;8.01;100.00;98759.48;106738;1287;24233;-71
2023/01/19 14:47:00;;;;;;;25.10;7.90;;;;;;;8.07;100.00;98759.01;109563;1286;22949;-71
2023/01/19 14:49:34;;;;;;;28.40;8.50;;;;;;;8.12;100.00;98757.95;109637;1287;23626;-71
2023/01/19 14:52:07;;;;;;;32.20;8.40;;;;;;;8.17;100.00;98760.27;109625;1284;22273;-71
2023/01/19 14:54:37;;;;;;;27.80;9.00;;;;;;;8.21;100.00;98756.55;109428;1287;22898;-71
2023/01/19 14:57:07;;;;;;;36.10;11.80;;;;;;;8.25;100.00;98759.56;109390;1287;22255;-71
2023/01/19 14:59:34;;;;;;;26.90;9.10;;;;;;;8.29;100.00;98762.48;109421;1287;22195;-71
2023/01/19 15:02:01;;;;;;;26.60;8.80;;;;;;;8.32;100.00;98764.38;109650;1287;22401;-71
2023/01/19 15:04:29;;;;;;;28.10;9.00;;;;;;;8.35;100.00;98761.86;109636;1287;22293;-71
2023/01/19 15:06:55;;;;;;;37.50;8.70;;;;;;;8.40;100.00;98759.61;109637;1286;22236;-71
2023/01/19 15:09:23;;;;;;;27.60;9.00;;;;;;;8.41;100.00;98756.13;109848;1284;22937;-71
2023/01/19 15:11:50;;;;;;;28.20;9.30;;;;;;;8.41;100.00;98755.16;109696;1283;22293;-71
2023/01/19 15:14:17;;;;;;;32.70;8.50;;;;;;;8.43;100.00;98760.02;109628;1283;22404;-71
2023/01/19 15:16:44;;;;;;;35.70;11.90;;;;;;;8.47;100.00;98772.79;109748;1274;23074;-71
2023/01/19 15:19:12;;;;;;;33.40;9.10;;;;;;;8.51;100.00;98780.75;109745;1283;22386;-71
2023/01/19 15:21:44;;;;;;;36.10;9.30;;;;;;;8.53;100.00;98778.35;109770;1284;22301;-71
2023/01/19 15:24:12;;;;;;;27.60;8.20;;;;;;;8.58;100.00;98783.80;109835;1283;23038;-71
2023/01/19 15:26:40;;;;;;;31.80;9.20;;;;;;;8.62;100.00;98785.45;109827;1284;22211;-71
2023/01/19 15:29:25;;;;;;;29.20;8.00;;;;;;;8.63;100.00;98780.29;109863;1284;22505;-72
2023/01/19 15:31:52;;;;;;;27.20;8.40;;;;;;;8.67;100.00;98777.66;109800;1283;22228;-71
2023/01/19 15:34:19;;;;;;;34.00;9.00;;;;;;;8.65;100.00;98765.24;109760;1283;22755;-71
2023/01/19 15:36:46;;;;;;;31.90;9.40;;;;;;;8.64;100.00;98764.98;109799;1283;22686;-72
2023/01/19 15:39:13;;;;;;;30.70;8.00;;;;;;;8.69;100.00;98763.54;109798;1283;22446;-72
2023/01/19 15:41:40;;;;;;;30.50;9.20;;;;;;;8.72;100.00;98766.98;109872;1282;22279;-71
2023/01/19 15:44:09;;;;;;;31.60;8.20;;;;;;;8.75;100.00;98763.98;109877;1282;22397;-72
2023/01/19 15:46:36;;;;;;;29.70;7.90;;;;;;;8.79;100.00;98758.35;109796;1282;22214;-71
2023/01/19 15:49:04;;;;;;;26.30;8.50;;;;;;;8.82;100.00;98764.08;109851;1282;22305;-72
2023/01/19 15:51:32;;;;;;;31.70;8.40;;;;;;;8.84;100.00;98773.23;109749;1281;23028;-70
2023/01/19 15:53:59;;;;;;;32.50;8.20;;;;;;;8.89;100.00;98772.05;109858;1282;22236;-70
2023/01/19 15:56:27;;;;;;;28.70;8.60;;;;;;;8.89;100.00;98772.33;109759;1282;22213;-70
2023/01/19 15:58:55;;;;;;;32.00;9.30;;;;;;;8.91;100.00;98781.23;109787;1283;22428;-71
2023/01/19 16:01:29;;;;;;;28.00;8.10;;;;;;;8.94;100.00;98775.92;109852;1283;22265;-70
2023/01/19 16:03:58;;;;;;;32.10;8.70;;;;;;;8.99;100.00;98784.13;109885;1282;22177;-70
2023/01/19 16:06:25;;;;;;;35.40;8.20;;;;;;;9.04;100.00;98788.66;109870;1283;22711;-71
2023/01/19 16:08:58;;;;;;;34.30;9.80;;;;;;;9.07;100.00;98790.20;109829;1282;22304;-69
2023/01/19 16:11:25;;;;;;;28.70;9.40;;;;;;;9.10;100.00;98790.95;109815;1283;22258;-68
2023/01/19 16:13:52;;;;;;;30.90;8.50;;;;;;;9.11;100.00;98793.05;109816;1282;23315;-70
2023/01/19 16:16:20;;;;;;;29.50;8.60;;;;;;;9.14;100.00;98794.00;109825;1282;22311;-68
2023/01/19 16:18:47;;;;;;;28.70;9.60;;;;;;;9.14;100.00;98794.02;109804;1282;22396;-70
2023/01/19 16:21:15;;;;;;;32.90;9.00;;;;;;;9.10;100.00;98794.63;109873;1283;22204;-71
2023/01/19 16:23:42;;;;;;;28.60;8.50;;;;;;;9.12;100.00;98797.70;109836;1283;22258;-71
2023/01/19 16:26:23;;;;;;;29.00;8.80;;;;;;;9.16;100.00;98797.29;109750;1283;22212;-70
2023/01/19 16:28:50;;;;;;;32.70;8.80;;;;;;;9.21;100.00;98797.79;109746;1283;22216;-71
2023/01/19 16:31:17;;;;;;;30.60;9.20;;;;;;;9.25;100.00;98798.46;109773;1283;22285;-71
2023/01/19 16:33:44;;;;;;;32.20;8.10;;;;;;;9.29;100.00;98795.33;109785;1283;23549;-71
2023/01/19 16:36:19;;;;;;;30.60;9.60;;;;;;;9.30;100.00;98794.83;109768;1282;22193;-70
2023/01/19 16:38:46;;;;;;;27.80;8.80;;;;;;;9.29;100.00;98794.62;109724;1283;22294;-71
2023/01/19 16:41:13;;;;;;;30.00;9.20;;;;;;;9.31;100.00;98798.23;109780;1284;23490;-70
2023/01/19 16:43:40;;;;;;;30.50;8.60;;;;;;;9.34;100.00;98796.53;109762;1284;22665;-71
2023/01/19 16:46:15;;;;;;;29.00;9.30;;;;;;;9.36;100.00;98785.10;109822;1281;22231;-71
2023/01/19 16:48:43;;;;;;;31.00;8.90;;;;;;;9.38;100.00;98782.58;109691;1284;22233;-71
2023/01/19 16:51:09;;;;;;;28.80;8.50;;;;;;;9.40;100.00;98783.76;109783;1283;23129;-72
2023/01/19 16:53:37;;;;;;;28.60;8.90;;;;;;;9.42;100.00;98788.95;109695;1281;23087;-70
2023/01/19 16:56:13;;;;;;;25.40;8.90;;;;;;;9.44;100.00;98789.91;109738;1283;22894;-71
2023/01/19 16:58:40;;;;;;;30.60;8.60;;;;;;;9.41;100.00;98793.41;109751;1283;22489;-70
2023/01/19 17:01:08;;;;;;;30.00;9.30;;;;;;;9.41;100.00;98792.34;109779;1284;22308;-71
2023/01/19 17:03:37;;;;;;;33.30;9.40;;;;;;;9.42;100.00;98788.41;109814;1276;22205;-71
2023/01/19 17:06:05;;;;;;;31.30;8.70;;;;;;;9.45;100.00;98784.31;109727;1283;23004;-71
2023/01/19 17:08:33;;;;;;;32.30;8.30;;;;;;;9.44;100.00;98777.20;109820;1284;22846;-71
2023/01/19 17:11:01;;;;;;;27.90;9.70;;;;;;;9.46;100.00;98781.30;109802;1279;22300;-70
2023/01/19 17:13:29;;;;;;;30.40;9.20;;;;;;;9.45;100.00;98781.42;109794;1283;23182;-70
2023/01/19 17:16:00;;;;;;;33.00;9.40;;;;;;;9.39;100.00;98778.67;109794;1283;22298;-71
2023/01/19 17:18:27;;;;;;;28.20;10.30;;;;;;;9.33;100.00;98779.20;109783;1283;22237;-71
2023/01/19 17:21:05;;;;;;;29.90;9.70;;;;;;;9.30;100.00;98782.39;109470;1283;25396;-70
2023/01/19 17:23:35;;;;;;;26.60;8.80;;;;;;;9.29;100.00;98784.13;106957;1283;22559;-70
2023/01/19 17:26:03;;;;;;;30.20;9.30;;;;;;;9.28;100.00;98782.85;106970;1283;22558;-71
2023/01/19 17:28:30;;;;;;;30.00;8.90;;;;;;;9.24;100.00;98781.14;106761;1283;25546;-71
2023/01/19 17:31:06;;;;;;;30.70;9.60;;;;;;;9.20;100.00;98782.91;106628;1284;24292;-70
2023/01/19 17:33:33;;;;;;;37.60;15.40;;;;;;;9.19;100.00;98782.32;106811;1283;25256;-70
2023/01/19 17:36:08;;;;;;;34.50;12.30;;;;;;;9.16;100.00;98779.15;106993;1283;22668;-70
2023/01/19 17:38:35;;;;;;;34.50;12.40;;;;;;;9.13;100.00;98777.39;106916;1283;22626;-70
2023/01/19 17:41:14;;;;;;;58.30;21.50;;;;;;;9.10;100.00;98779.55;106803;1283;22579;-71
2023/01/19 17:43:41;;;;;;;34.20;14.10;;;;;;;9.11;100.00;98781.16;106967;1283;23240;-70
2023/01/19 17:46:08;;;;;;;26.20;8.90;;;;;;;9.12;100.00;98782.13;107443;1276;22542;-71
2023/01/19 17:48:35;;;;;;;28.20;9.20;;;;;;;9.14;100.00;98778.73;107181;1276;24350;-71
2023/01/19 17:51:11;;;;;;;32.70;11.00;;;;;;;9.15;100.00;98775.20;107462;1276;22617;-72
2023/01/19 17:53:39;;;;;;;36.40;13.90;;;;;;;9.20;100.00;98775.75;107543;1276;25329;-71
2023/01/19 17:56:14;;;;;;;30.90;11.80;;;;;;;9.21;100.00;98773.17;107555;1276;22531;-72
2023/01/19 20:08:20;;;;;;;45.30;16.60;;;;;;;7.89;100.00;98799.59;104542;1305;544888;-75
2023/01/19 20:10:47;;;;;;;39.60;13.40;;;;;;;7.99;100.00;98807.66;106577;1287;22502;-74
2023/01/19 20:13:18;;;;;;;30.40;10.70;;;;;;;8.14;100.00;98814.89;107442;1287;22609;-75
2023/01/19 20:15:45;;;;;;;26.10;7.90;;;;;;;8.26;100.00;98812.88;107491;1287;22930;-75
2023/01/19 20:18:12;;;;;;;28.60;8.60;;;;;;;8.36;100.00;98814.63;107309;1287;22654;-75
2023/01/19 20:20:39;;;;;;;24.50;8.30;;;;;;;8.45;100.00;98819.89;107242;1288;25337;-74